Bowstring, Minnesota
Current Conditions -  °F | °C
As of 10:13 PM on Wednesday 28 Jan 2015 (Local Time) from KFOZ Reporting Station
Unknown Precip Unknown Precip  
Wind Chill: 30°   Ceiling: 600
Heat Index: 30°   Visibility: 4mi
Dew Point: 28°   Wind: 0mph
Humidity: 93%   Direction: NA
Pressure: 29.83"   Gusts: NA
Location:  47.54°N, 93.8°W
Report Text: KFOZ 290413Z AUTO 00000KT 4SM UP OVC006 M01/M02 A2983 RMK AO2
Loading
Personal Weather Stations






























Interactive Weather Map New forecast layout! Learn more

10-Day Weather Forecast

Advertisements
Track Severe Weather on mobile